sensor_id;sensor_type;location;lat;lon;timestamp;pressure;altitude;pressure_sealevel;temperature;humidity
59274;BME280;45044;41.572;24.730;2024-02-28T00:00:17;91727.63;;;2.53;100.00
59274;BME280;45044;41.572;24.730;2024-02-28T00:02:43;91732.66;;;2.58;100.00
59274;BME280;45044;41.572;24.730;2024-02-28T00:05:10;91734.06;;;2.46;100.00
59274;BME280;45044;41.572;24.730;2024-02-28T00:07:37;91744.09;;;2.57;100.00
59274;BME280;45044;41.572;24.730;2024-02-28T00:10:04;91736.25;;;2.66;100.00
59274;BME280;45044;41.572;24.730;2024-02-28T00:12:31;91740.13;;;2.59;100.00
59274;BME280;45044;41.572;24.730;2024-02-28T00:14:58;91743.50;;;2.60;100.00
59274;BME280;45044;41.572;24.730;2024-02-28T00:17:24;91733.88;;;2.51;100.00
59274;BME280;45044;41.572;24.730;2024-02-28T00:19:52;91731.00;;;2.44;100.00
59274;BME280;45044;41.572;24.730;2024-02-28T00:22:19;91738.31;;;2.60;100.00
59274;BME280;45044;41.572;24.730;2024-02-28T00:24:45;91734.53;;;2.48;100.00
59274;BME280;45044;41.572;24.730;2024-02-28T00:27:13;91734.25;;;2.41;100.00
59274;BME280;45044;41.572;24.730;2024-02-28T00:29:40;91736.84;;;2.41;100.00
59274;BME280;45044;41.572;24.730;2024-02-28T00:32:06;91739.16;;;2.34;100.00
59274;BME280;45044;41.572;24.730;2024-02-28T00:34:33;91727.22;;;2.33;100.00
59274;BME280;45044;41.572;24.730;2024-02-28T00:37:00;91735.16;;;2.45;100.00
59274;BME280;45044;41.572;24.730;2024-02-28T00:39:27;91734.81;;;2.56;100.00
59274;BME280;45044;41.572;24.730;2024-02-28T00:41:54;91740.16;;;2.50;100.00
59274;BME280;45044;41.572;24.730;2024-02-28T00:44:21;91736.50;;;2.51;100.00
59274;BME280;45044;41.572;24.730;2024-02-28T00:46:47;91733.47;;;2.41;100.00
59274;BME280;45044;41.572;24.730;2024-02-28T00:49:14;91739.13;;;2.43;100.00
59274;BME280;45044;41.572;24.730;2024-02-28T00:51:41;91732.28;;;2.38;100.00
59274;BME280;45044;41.572;24.730;2024-02-28T00:54:08;91736.84;;;2.41;100.00
59274;BME280;45044;41.572;24.730;2024-02-28T00:56:35;91735.16;;;2.45;100.00
59274;BME280;45044;41.572;24.730;2024-02-28T00:59:01;91739.88;;;2.43;100.00
59274;BME280;45044;41.572;24.730;2024-02-28T01:01:29;91730.47;;;2.30;100.00
59274;BME280;45044;41.572;24.730;2024-02-28T01:04:00;91740.69;;;2.26;100.00
59274;BME280;45044;41.572;24.730;2024-02-28T01:06:26;91733.13;;;2.03;100.00
59274;BME280;45044;41.572;24.730;2024-02-28T01:08:54;91735.13;;;1.97;100.00
59274;BME280;45044;41.572;24.730;2024-02-28T01:11:21;91726.66;;;2.18;100.00
59274;BME280;45044;41.572;24.730;2024-02-28T01:13:48;91727.59;;;2.13;100.00
59274;BME280;45044;41.572;24.730;2024-02-28T01:16:14;91726.25;;;2.16;100.00
59274;BME280;45044;41.572;24.730;2024-02-28T01:18:43;91723.19;;;2.14;100.00
59274;BME280;45044;41.572;24.730;2024-02-28T01:21:10;91716.88;;;2.24;100.00
59274;BME280;45044;41.572;24.730;2024-02-28T01:23:36;91720.72;;;2.18;100.00
59274;BME280;45044;41.572;24.730;2024-02-28T01:26:03;91722.28;;;2.10;100.00
59274;BME280;45044;41.572;24.730;2024-02-28T01:28:31;91715.25;;;2.10;100.00
59274;BME280;45044;41.572;24.730;2024-02-28T01:30:58;91716.59;;;2.17;100.00
59274;BME280;45044;41.572;24.730;2024-02-28T01:33:28;91723.19;;;2.14;100.00
59274;BME280;45044;41.572;24.730;2024-02-28T01:35:54;91722.91;;;2.07;100.00
59274;BME280;45044;41.572;24.730;2024-02-28T01:38:25;91719.38;;;2.11;100.00
59274;BME280;45044;41.572;24.730;2024-02-28T01:40:53;91725.31;;;2.12;100.00
59274;BME280;45044;41.572;24.730;2024-02-28T01:43:20;91713.75;;;2.00;100.00
59274;BME280;45044;41.572;24.730;2024-02-28T01:45:46;91717.09;;;2.10;100.00
59274;BME280;45044;41.572;24.730;2024-02-28T01:48:13;91719.09;;;1.95;100.00
59274;BME280;45044;41.572;24.730;2024-02-28T01:50:41;91726.31;;;1.81;100.00
59274;BME280;45044;41.572;24.730;2024-02-28T01:53:08;91723.97;;;1.97;100.00
59274;BME280;45044;41.572;24.730;2024-02-28T01:55:36;91719.44;;;1.85;100.00
59274;BME280;45044;41.572;24.730;2024-02-28T01:58:04;91715.91;;;1.89;100.00
59274;BME280;45044;41.572;24.730;2024-02-28T02:00:38;91723.25;;;1.78;100.00
59274;BME280;45044;41.572;24.730;2024-02-28T02:03:06;91721.69;;;1.95;100.00
59274;BME280;45044;41.572;24.730;2024-02-28T02:05:33;91731.63;;;1.84;100.00
59274;BME280;45044;41.572;24.730;2024-02-28T02:08:01;91730.72;;;1.98;100.00
59274;BME280;45044;41.572;24.730;2024-02-28T02:10:28;91734.69;;;1.86;100.00
59274;BME280;45044;41.572;24.730;2024-02-28T02:12:55;91725.53;;;1.80;100.00
59274;BME280;45044;41.572;24.730;2024-02-28T02:15:30;91736.34;;;1.91;100.00
59274;BME280;45044;41.572;24.730;2024-02-28T02:17:57;91726.31;;;1.81;100.00
59274;BME280;45044;41.572;24.730;2024-02-28T02:20:26;91734.50;;;2.00;100.00
59274;BME280;45044;41.572;24.730;2024-02-28T02:23:00;91736.63;;;1.98;100.00
59274;BME280;45044;41.572;24.730;2024-02-28T02:25:26;91741.06;;;2.07;100.00
59274;BME280;45044;41.572;24.730;2024-02-28T02:27:53;91742.56;;;2.08;100.00
59274;BME280;45044;41.572;24.730;2024-02-28T02:30:20;91751.75;;;2.05;100.00
59274;BME280;45044;41.572;24.730;2024-02-28T02:32:47;91752.19;;;1.98;100.00
59274;BME280;45044;41.572;24.730;2024-02-28T02:35:14;91746.25;;;1.98;100.00
59274;BME280;45044;41.572;24.730;2024-02-28T02:37:44;91749.44;;;1.95;100.00
59274;BME280;45044;41.572;24.730;2024-02-28T02:40:15;91736.50;;;1.86;100.00
59274;BME280;45044;41.572;24.730;2024-02-28T02:42:42;91741.41;;;1.70;100.00
59274;BME280;45044;41.572;24.730;2024-02-28T02:45:09;91739.56;;;1.79;100.00
59274;BME280;45044;41.572;24.730;2024-02-28T02:47:36;91750.09;;;1.74;100.00
59274;BME280;45044;41.572;24.730;2024-02-28T02:50:03;91748.28;;;1.74;100.00
59274;BME280;45044;41.572;24.730;2024-02-28T02:52:30;91750.72;;;1.79;100.00
59274;BME280;45044;41.572;24.730;2024-02-28T02:54:57;91748.88;;;1.71;100.00
59274;BME280;45044;41.572;24.730;2024-02-28T02:57:24;91751.94;;;1.73;100.00
59274;BME280;45044;41.572;24.730;2024-02-28T02:59:51;91754.06;;;1.62;100.00
59274;BME280;45044;41.572;24.730;2024-02-28T03:02:17;91755.91;;;1.44;100.00
59274;BME280;45044;41.572;24.730;2024-02-28T03:04:44;91752.88;;;1.60;100.00
59274;BME280;45044;41.572;24.730;2024-02-28T03:07:11;91763.06;;;1.65;100.00
59274;BME280;45044;41.572;24.730;2024-02-28T03:09:37;91758.63;;;1.57;100.00
59274;BME280;45044;41.572;24.730;2024-02-28T03:12:04;91754.22;;;1.66;100.00
59274;BME280;45044;41.572;24.730;2024-02-28T03:14:31;91748.25;;;1.65;100.00
59274;BME280;45044;41.572;24.730;2024-02-28T03:16:58;91754.84;;;1.54;100.00
59274;BME280;45044;41.572;24.730;2024-02-28T03:19:24;91751.16;;;1.73;100.00
59274;BME280;45044;41.572;24.730;2024-02-28T03:21:51;91752.53;;;1.70;100.00
59274;BME280;45044;41.572;24.730;2024-02-28T03:24:18;91755.16;;;1.61;100.00
59274;BME280;45044;41.572;24.730;2024-02-28T03:26:45;91760.63;;;1.60;100.00
59274;BME280;45044;41.572;24.730;2024-02-28T03:29:12;91765.97;;;1.54;100.00
59274;BME280;45044;41.572;24.730;2024-02-28T03:31:38;91771.44;;;1.62;100.00
59274;BME280;45044;41.572;24.730;2024-02-28T03:34:07;91767.78;;;1.72;100.00
59274;BME280;45044;41.572;24.730;2024-02-28T03:36:35;91770.38;;;1.72;100.00
59274;BME280;45044;41.572;24.730;2024-02-28T03:39:02;91776.19;;;1.77;100.00
59274;BME280;45044;41.572;24.730;2024-02-28T03:41:29;91772.19;;;1.80;100.00
59274;BME280;45044;41.572;24.730;2024-02-28T03:43:55;91767.03;;;1.62;100.00
59274;BME280;45044;41.572;24.730;2024-02-28T03:46:22;91774.66;;;1.67;100.00
59274;BME280;45044;41.572;24.730;2024-02-28T03:48:49;91768.84;;;1.62;100.00
59274;BME280;45044;41.572;24.730;2024-02-28T03:51:17;91764.13;;;1.64;100.00
59274;BME280;45044;41.572;24.730;2024-02-28T03:53:43;91771.00;;;1.60;100.00
59274;BME280;45044;41.572;24.730;2024-02-28T03:56:10;91770.38;;;1.63;100.00
59274;BME280;45044;41.572;24.730;2024-02-28T03:58:39;91758.34;;;1.49;100.00
59274;BME280;45044;41.572;24.730;2024-02-28T04:01:06;91773.72;;;1.46;100.00
59274;BME280;45044;41.572;24.730;2024-02-28T04:03:33;91775.41;;;1.50;100.00
59274;BME280;45044;41.572;24.730;2024-02-28T04:06:00;91770.38;;;1.54;100.00
59274;BME280;45044;41.572;24.730;2024-02-28T04:08:26;91767.50;;;1.55;100.00
59274;BME280;45044;41.572;24.730;2024-02-28T04:10:53;91774.97;;;1.48;100.00
59274;BME280;45044;41.572;24.730;2024-02-28T04:13:20;91775.25;;;1.55;100.00
59274;BME280;45044;41.572;24.730;2024-02-28T04:15:47;91772.22;;;1.62;100.00
59274;BME280;45044;41.572;24.730;2024-02-28T04:18:13;91771.59;;;1.48;100.00
59274;BME280;45044;41.572;24.730;2024-02-28T04:20:40;91779.22;;;1.53;100.00
59274;BME280;45044;41.572;24.730;2024-02-28T04:23:07;91768.84;;;1.35;100.00
59274;BME280;45044;41.572;24.730;2024-02-28T04:25:34;91773.25;;;1.26;100.00
59274;BME280;45044;41.572;24.730;2024-02-28T04:28:02;91773.72;;;1.37;100.00
59274;BME280;45044;41.572;24.730;2024-02-28T04:30:29;91774.03;;;1.44;100.00
59274;BME280;45044;41.572;24.730;2024-02-28T04:32:55;91777.25;;;1.50;100.00
59274;BME280;45044;41.572;24.730;2024-02-28T04:35:22;91772.69;;;1.55;100.00
59274;BME280;45044;41.572;24.730;2024-02-28T04:37:49;91777.25;;;1.59;100.00
59274;BME280;45044;41.572;24.730;2024-02-28T04:40:16;91778.47;;;1.52;100.00
59274;BME280;45044;41.572;24.730;2024-02-28T04:42:43;91784.56;;;1.57;100.00
59274;BME280;45044;41.572;24.730;2024-02-28T04:45:10;91780.59;;;1.50;100.00
59274;BME280;45044;41.572;24.730;2024-02-28T04:47:37;91779.06;;;1.49;100.00
59274;BME280;45044;41.572;24.730;2024-02-28T04:50:10;91769.94;;;1.52;100.00
59274;BME280;45044;41.572;24.730;2024-02-28T04:52:37;91771.91;;;1.46;100.00
59274;BME280;45044;41.572;24.730;2024-02-28T04:55:04;91781.22;;;1.47;100.00
59274;BME280;45044;41.572;24.730;2024-02-28T04:57:31;91785.63;;;1.64;100.00
59274;BME280;45044;41.572;24.730;2024-02-28T04:59:58;91784.56;;;1.74;100.00
59274;BME280;45044;41.572;24.730;2024-02-28T05:02:24;91771.00;;;1.69;100.00
59274;BME280;45044;41.572;24.730;2024-02-28T05:04:52;91783.66;;;1.70;100.00
59274;BME280;45044;41.572;24.730;2024-02-28T05:07:19;91784.44;;;1.71;100.00
59274;BME280;45044;41.572;24.730;2024-02-28T05:09:46;91790.66;;;1.61;100.00
59274;BME280;45044;41.572;24.730;2024-02-28T05:12:12;91799.97;;;1.71;100.00
59274;BME280;45044;41.572;24.730;2024-02-28T05:14:39;91799.81;;;1.67;100.00
59274;BME280;45044;41.572;24.730;2024-02-28T05:17:06;91803.94;;;1.77;100.00
59274;BME280;45044;41.572;24.730;2024-02-28T05:19:34;91791.56;;;1.83;100.00
59274;BME280;45044;41.572;24.730;2024-02-28T05:22:01;91808.94;;;1.91;100.00
59274;BME280;45044;41.572;24.730;2024-02-28T05:24:28;91799.03;;;2.02;100.00
59274;BME280;45044;41.572;24.730;2024-02-28T05:26:55;91808.78;;;2.14;100.00
59274;BME280;45044;41.572;24.730;2024-02-28T05:29:22;91808.34;;;2.12;100.00
59274;BME280;45044;41.572;24.730;2024-02-28T05:31:49;91810.00;;;2.17;100.00
59274;BME280;45044;41.572;24.730;2024-02-28T05:34:15;91807.84;;;2.27;100.00
59274;BME280;45044;41.572;24.730;2024-02-28T05:36:43;91776.91;;;2.05;100.00
59274;BME280;45044;41.572;24.730;2024-02-28T05:39:10;91800.97;;;2.32;100.00
59274;BME280;45044;41.572;24.730;2024-02-28T05:41:36;91816.78;;;2.57;100.00
59274;BME280;45044;41.572;24.730;2024-02-28T05:44:03;91814.59;;;2.68;100.00
59274;BME280;45044;41.572;24.730;2024-02-28T05:46:30;91813.19;;;2.79;100.00
59274;BME280;45044;41.572;24.730;2024-02-28T05:48:57;91820.28;;;3.00;100.00
59274;BME280;45044;41.572;24.730;2024-02-28T05:51:24;91821.81;;;3.01;100.00
59274;BME280;45044;41.572;24.730;2024-02-28T05:53:51;91825.47;;;3.09;100.00
59274;BME280;45044;41.572;24.730;2024-02-28T05:56:18;91829.84;;;3.17;100.00
59274;BME280;45044;41.572;24.730;2024-02-28T05:58:47;91827.94;;;2.96;100.00
59274;BME280;45044;41.572;24.730;2024-02-28T06:01:17;91827.25;;;3.17;100.00
59274;BME280;45044;41.572;24.730;2024-02-28T06:03:47;91828.16;;;3.21;100.00
59274;BME280;45044;41.572;24.730;2024-02-28T06:06:15;91834.41;;;3.20;100.00
59274;BME280;45044;41.572;24.730;2024-02-28T06:08:43;91828.63;;;3.45;100.00
59274;BME280;45044;41.572;24.730;2024-02-28T06:11:10;91830.09;;;3.55;100.00
59274;BME280;45044;41.572;24.730;2024-02-28T06:13:40;91835.81;;;3.69;100.00
59274;BME280;45044;41.572;24.730;2024-02-28T06:16:07;91838.34;;;3.78;100.00
59274;BME280;45044;41.572;24.730;2024-02-28T06:18:34;91836.25;;;3.93;100.00
59274;BME280;45044;41.572;24.730;2024-02-28T06:21:01;91837.31;;;4.13;100.00
59274;BME280;45044;41.572;24.730;2024-02-28T06:23:28;91845.88;;;4.35;100.00
59274;BME280;45044;41.572;24.730;2024-02-28T06:25:56;91848.50;;;4.48;100.00
59274;BME280;45044;41.572;24.730;2024-02-28T06:28:24;91849.47;;;5.02;100.00
59274;BME280;45044;41.572;24.730;2024-02-28T06:30:51;91851.88;;;5.45;100.00
59274;BME280;45044;41.572;24.730;2024-02-28T06:33:18;91866.06;;;5.97;100.00
59274;BME280;45044;41.572;24.730;2024-02-28T06:35:45;91864.97;;;6.40;100.00
59274;BME280;45044;41.572;24.730;2024-02-28T06:38:12;91869.44;;;7.00;100.00
59274;BME280;45044;41.572;24.730;2024-02-28T06:40:39;91871.03;;;7.70;100.00
59274;BME280;45044;41.572;24.730;2024-02-28T06:43:06;91875.31;;;8.34;100.00
59274;BME280;45044;41.572;24.730;2024-02-28T06:45:34;91862.34;;;9.28;100.00
59274;BME280;45044;41.572;24.730;2024-02-28T06:48:01;91868.28;;;10.33;100.00
59274;BME280;45044;41.572;24.730;2024-02-28T06:50:28;91866.41;;;11.48;100.00
59274;BME280;45044;41.572;24.730;2024-02-28T06:52:55;91863.66;;;12.68;100.00
59274;BME280;45044;41.572;24.730;2024-02-28T06:55:21;91853.97;;;13.82;100.00
59274;BME280;45044;41.572;24.730;2024-02-28T06:57:48;91863.78;;;15.00;88.94
59274;BME280;45044;41.572;24.730;2024-02-28T07:00:16;91869.25;;;16.23;79.48
59274;BME280;45044;41.572;24.730;2024-02-28T07:02:45;91873.38;;;16.28;82.00
59274;BME280;45044;41.572;24.730;2024-02-28T07:05:12;91869.25;;;16.90;75.71
59274;BME280;45044;41.572;24.730;2024-02-28T07:07:39;91875.44;;;17.66;69.37
59274;BME280;45044;41.572;24.730;2024-02-28T07:10:07;91873.72;;;17.28;69.21
59274;BME280;45044;41.572;24.730;2024-02-28T07:12:34;91873.44;;;17.94;68.47
59274;BME280;45044;41.572;24.730;2024-02-28T07:15:01;91879.19;;;17.92;67.93
59274;BME280;45044;41.572;24.730;2024-02-28T07:17:28;91873.72;;;15.91;75.28
59274;BME280;45044;41.572;24.730;2024-02-28T07:19:56;91876.28;;;16.72;76.59
59274;BME280;45044;41.572;24.730;2024-02-28T07:22:23;91864.19;;;18.67;65.78
59274;BME280;45044;41.572;24.730;2024-02-28T07:24:56;91870.94;;;19.46;63.25
59274;BME280;45044;41.572;24.730;2024-02-28T07:27:23;91866.31;;;20.73;55.82
59274;BME280;45044;41.572;24.730;2024-02-28T07:29:54;91870.25;;;18.27;61.80
59274;BME280;45044;41.572;24.730;2024-02-28T07:32:21;91866.03;;;17.61;70.58
59274;BME280;45044;41.572;24.730;2024-02-28T07:34:47;91864.69;;;19.53;62.18
59274;BME280;45044;41.572;24.730;2024-02-28T07:37:14;91859.16;;;20.69;56.31
59274;BME280;45044;41.572;24.730;2024-02-28T07:39:41;91864.25;;;21.20;52.94
59274;BME280;45044;41.572;24.730;2024-02-28T07:42:08;91862.22;;;20.55;53.42
59274;BME280;45044;41.572;24.730;2024-02-28T07:44:35;91866.81;;;18.06;60.67
59274;BME280;45044;41.572;24.730;2024-02-28T07:47:01;91869.41;;;17.62;66.13
59274;BME280;45044;41.572;24.730;2024-02-28T07:49:28;91860.63;;;17.41;67.12
59274;BME280;45044;41.572;24.730;2024-02-28T07:51:55;91868.28;;;17.63;64.51
59274;BME280;45044;41.572;24.730;2024-02-28T07:54:22;91864.31;;;16.92;74.71
59274;BME280;45044;41.572;24.730;2024-02-28T07:56:49;91859.47;;;15.25;92.54
59274;BME280;45044;41.572;24.730;2024-02-28T07:59:16;91866.81;;;13.65;100.00
59274;BME280;45044;41.572;24.730;2024-02-28T08:01:42;91855.69;;;14.43;100.00
59274;BME280;45044;41.572;24.730;2024-02-28T08:04:10;91854.09;;;14.68;100.00
59274;BME280;45044;41.572;24.730;2024-02-28T08:06:37;91864.16;;;13.21;100.00
59274;BME280;45044;41.572;24.730;2024-02-28T08:09:03;91866.41;;;13.92;100.00
59274;BME280;45044;41.572;24.730;2024-02-28T08:11:30;91856.59;;;13.93;100.00
59274;BME280;45044;41.572;24.730;2024-02-28T08:13:57;91857.72;;;13.95;100.00
59274;BME280;45044;41.572;24.730;2024-02-28T08:16:27;91860.03;;;13.71;100.00
59274;BME280;45044;41.572;24.730;2024-02-28T08:18:58;91865.25;;;13.16;100.00
59274;BME280;45044;41.572;24.730;2024-02-28T08:21:26;91869.78;;;13.96;100.00
59274;BME280;45044;41.572;24.730;2024-02-28T08:23:54;91856.78;;;14.57;100.00
59274;BME280;45044;41.572;24.730;2024-02-28T08:26:22;91856.16;;;15.63;100.00
59274;BME280;45044;41.572;24.730;2024-02-28T08:28:49;91855.34;;;17.09;100.00
59274;BME280;45044;41.572;24.730;2024-02-28T08:31:16;91865.78;;;17.52;83.08
59274;BME280;45044;41.572;24.730;2024-02-28T08:33:45;91860.66;;;16.47;96.69
59274;BME280;45044;41.572;24.730;2024-02-28T08:36:12;91856.19;;;15.59;100.00
59274;BME280;45044;41.572;24.730;2024-02-28T08:38:39;91857.84;;;15.88;100.00
59274;BME280;45044;41.572;24.730;2024-02-28T08:41:07;91854.91;;;14.54;100.00
59274;BME280;45044;41.572;24.730;2024-02-28T08:43:40;91858.09;;;14.01;100.00
59274;BME280;45044;41.572;24.730;2024-02-28T08:46:07;91859.78;;;14.63;100.00
59274;BME280;45044;41.572;24.730;2024-02-28T08:48:35;91858.41;;;14.21;100.00
59274;BME280;45044;41.572;24.730;2024-02-28T08:51:04;91849.25;;;14.52;100.00
59274;BME280;45044;41.572;24.730;2024-02-28T08:53:31;91857.69;;;15.03;100.00
59274;BME280;45044;41.572;24.730;2024-02-28T08:55:57;91850.75;;;14.53;100.00
59274;BME280;45044;41.572;24.730;2024-02-28T08:58:24;91860.50;;;14.70;100.00
59274;BME280;45044;41.572;24.730;2024-02-28T09:00:51;91858.31;;;14.51;100.00
59274;BME280;45044;41.572;24.730;2024-02-28T09:03:19;91866.38;;;14.07;100.00
59274;BME280;45044;41.572;24.730;2024-02-28T09:05:48;91853.38;;;14.56;100.00
59274;BME280;45044;41.572;24.730;2024-02-28T09:08:15;91853.25;;;14.85;100.00
59274;BME280;45044;41.572;24.730;2024-02-28T09:10:42;91853.09;;;14.29;100.00
59274;BME280;45044;41.572;24.730;2024-02-28T09:13:08;91858.47;;;13.96;100.00
59274;BME280;45044;41.572;24.730;2024-02-28T09:15:36;91863.03;;;13.66;100.00
59274;BME280;45044;41.572;24.730;2024-02-28T09:18:04;91860.78;;;13.72;100.00
59274;BME280;45044;41.572;24.730;2024-02-28T09:20:31;91857.75;;;13.88;100.00
59274;BME280;45044;41.572;24.730;2024-02-28T09:22:58;91864.53;;;13.34;100.00
59274;BME280;45044;41.572;24.730;2024-02-28T09:25:25;91865.66;;;13.88;100.00
59274;BME280;45044;41.572;24.730;2024-02-28T09:27:54;91859.44;;;14.53;100.00
59274;BME280;45044;41.572;24.730;2024-02-28T09:30:21;91864.34;;;14.55;100.00
59274;BME280;45044;41.572;24.730;2024-02-28T09:32:50;91857.25;;;15.12;100.00
59274;BME280;45044;41.572;24.730;2024-02-28T09:35:17;91857.16;;;15.30;100.00
59274;BME280;45044;41.572;24.730;2024-02-28T09:37:44;91860.19;;;14.57;100.00
59274;BME280;45044;41.572;24.730;2024-02-28T09:40:12;91846.97;;;14.54;100.00
59274;BME280;45044;41.572;24.730;2024-02-28T09:42:39;91852.63;;;14.56;100.00
59274;BME280;45044;41.572;24.730;2024-02-28T09:45:08;91857.53;;;14.61;100.00
59274;BME280;45044;41.572;24.730;2024-02-28T09:47:36;91852.03;;;14.11;100.00
59274;BME280;45044;41.572;24.730;2024-02-28T09:50:04;91847.22;;;13.55;100.00
59274;BME280;45044;41.572;24.730;2024-02-28T09:52:31;91850.94;;;13.69;100.00
59274;BME280;45044;41.572;24.730;2024-02-28T09:54:57;91860.03;;;13.71;100.00
59274;BME280;45044;41.572;24.730;2024-02-28T09:57:25;91856.22;;;13.87;100.00
59274;BME280;45044;41.572;24.730;2024-02-28T09:59:57;91853.22;;;13.45;100.00
59274;BME280;45044;41.572;24.730;2024-02-28T10:02:25;91838.88;;;13.42;100.00
59274;BME280;45044;41.572;24.730;2024-02-28T10:04:53;91852.47;;;13.51;100.00
59274;BME280;45044;41.572;24.730;2024-02-28T10:07:20;91844.56;;;13.70;100.00
59274;BME280;45044;41.572;24.730;2024-02-28T10:09:48;91833.22;;;13.40;100.00
59274;BME280;45044;41.572;24.730;2024-02-28T10:12:25;91838.13;;;13.27;100.00
59274;BME280;45044;41.572;24.730;2024-02-28T10:14:52;91833.59;;;13.27;100.00
59274;BME280;45044;41.572;24.730;2024-02-28T10:17:19;91831.34;;;13.37;100.00
59274;BME280;45044;41.572;24.730;2024-02-28T10:19:45;91835.09;;;12.99;100.00
59274;BME280;45044;41.572;24.730;2024-02-28T10:22:13;91829.81;;;12.99;100.00
59274;BME280;45044;41.572;24.730;2024-02-28T10:24:40;91841.88;;;13.00;100.00
59274;BME280;45044;41.572;24.730;2024-02-28T10:27:07;91845.59;;;12.77;100.00
59274;BME280;45044;41.572;24.730;2024-02-28T10:29:33;91838.81;;;12.84;100.00
59274;BME280;45044;41.572;24.730;2024-02-28T10:32:00;91836.91;;;12.66;100.00
59274;BME280;45044;41.572;24.730;2024-02-28T10:34:29;91839.56;;;12.80;100.00
59274;BME280;45044;41.572;24.730;2024-02-28T10:36:56;91831.28;;;12.86;100.00
59274;BME280;45044;41.572;24.730;2024-02-28T10:39:26;91821.53;;;13.26;100.00
59274;BME280;45044;41.572;24.730;2024-02-28T10:41:53;91817.16;;;14.46;100.00
59274;BME280;45044;41.572;24.730;2024-02-28T10:44:21;91821.66;;;14.53;100.00
59274;BME280;45044;41.572;24.730;2024-02-28T10:46:49;91818.22;;;14.56;100.00
59274;BME280;45044;41.572;24.730;2024-02-28T10:49:16;91814.81;;;14.63;100.00
59274;BME280;45044;41.572;24.730;2024-02-28T10:51:45;91808.19;;;14.14;100.00
59274;BME280;45044;41.572;24.730;2024-02-28T10:54:14;91805.56;;;14.14;100.00
59274;BME280;45044;41.572;24.730;2024-02-28T10:56:43;91804.50;;;13.86;100.00
59274;BME280;45044;41.572;24.730;2024-02-28T10:59:11;91802.69;;;13.61;100.00
59274;BME280;45044;41.572;24.730;2024-02-28T11:01:43;91801.13;;;13.74;100.00
59274;BME280;45044;41.572;24.730;2024-02-28T11:04:13;91807.19;;;13.49;100.00
59274;BME280;45044;41.572;24.730;2024-02-28T11:06:49;91798.88;;;13.69;100.00
59274;BME280;45044;41.572;24.730;2024-02-28T11:09:25;91783.81;;;13.55;100.00
59274;BME280;45044;41.572;24.730;2024-02-28T11:11:53;91795.47;;;13.65;100.00
59274;BME280;45044;41.572;24.730;2024-02-28T11:14:21;91783.03;;;13.62;100.00
59274;BME280;45044;41.572;24.730;2024-02-28T11:17:00;91784.91;;;13.50;100.00
59274;BME280;45044;41.572;24.730;2024-02-28T11:19:30;91776.66;;;13.59;100.00
59274;BME280;45044;41.572;24.730;2024-02-28T11:22:00;91780.00;;;13.74;100.00
59274;BME280;45044;41.572;24.730;2024-02-28T11:24:32;91770.25;;;13.05;100.00
59274;BME280;45044;41.572;24.730;2024-02-28T11:27:00;91775.13;;;13.36;100.00
59274;BME280;45044;41.572;24.730;2024-02-28T11:29:28;91773.22;;;13.51;100.00
59274;BME280;45044;41.572;24.730;2024-02-28T11:31:55;91771.00;;;13.53;100.00
59274;BME280;45044;41.572;24.730;2024-02-28T11:34:22;91764.94;;;13.53;100.00
59274;BME280;45044;41.572;24.730;2024-02-28T11:36:50;91767.94;;;13.66;100.00
59274;BME280;45044;41.572;24.730;2024-02-28T11:39:17;91776.28;;;13.28;100.00
59274;BME280;45044;41.572;24.730;2024-02-28T11:41:45;91772.47;;;13.40;100.00
59274;BME280;45044;41.572;24.730;2024-02-28T11:44:17;91767.19;;;13.69;100.00
59274;BME280;45044;41.572;24.730;2024-02-28T11:46:45;91752.88;;;13.59;100.00
59274;BME280;45044;41.572;24.730;2024-02-28T11:49:12;91758.91;;;13.41;100.00
59274;BME280;45044;41.572;24.730;2024-02-28T11:51:43;91775.50;;;13.38;100.00
59274;BME280;45044;41.572;24.730;2024-02-28T11:54:11;91767.22;;;13.03;100.00
59274;BME280;45044;41.572;24.730;2024-02-28T11:56:38;91761.94;;;13.14;100.00
59274;BME280;45044;41.572;24.730;2024-02-28T11:59:06;91763.44;;;13.63;100.00
59274;BME280;45044;41.572;24.730;2024-02-28T12:01:40;91761.03;;;14.01;100.00
59274;BME280;45044;41.572;24.730;2024-02-28T12:04:07;91758.78;;;14.00;100.00
59274;BME280;45044;41.572;24.730;2024-02-28T12:06:35;91761.59;;;14.46;100.00
59274;BME280;45044;41.572;24.730;2024-02-28T12:09:04;91755.59;;;14.38;100.00
59274;BME280;45044;41.572;24.730;2024-02-28T12:11:31;91758.94;;;14.49;100.00
59274;BME280;45044;41.572;24.730;2024-02-28T12:13:59;91746.31;;;14.08;100.00
59274;BME280;45044;41.572;24.730;2024-02-28T12:16:29;91750.50;;;13.87;100.00
59274;BME280;45044;41.572;24.730;2024-02-28T12:18:56;91750.94;;;13.78;100.00
59274;BME280;45044;41.572;24.730;2024-02-28T12:21:23;91757.78;;;13.61;100.00
59274;BME280;45044;41.572;24.730;2024-02-28T12:23:50;91748.28;;;13.82;100.00
59274;BME280;45044;41.572;24.730;2024-02-28T12:26:17;91742.22;;;13.88;100.00
59274;BME280;45044;41.572;24.730;2024-02-28T12:28:46;91741.44;;;13.99;100.00
59274;BME280;45044;41.572;24.730;2024-02-28T12:31:13;91744.41;;;14.08;100.00
59274;BME280;45044;41.572;24.730;2024-02-28T12:33:40;91732.31;;;14.07;100.00
59274;BME280;45044;41.572;24.730;2024-02-28T12:36:09;91738.28;;;14.26;100.00
59274;BME280;45044;41.572;24.730;2024-02-28T12:38:36;91744.31;;;14.34;100.00
59274;BME280;45044;41.572;24.730;2024-02-28T12:41:03;91731.44;;;14.32;100.00
59274;BME280;45044;41.572;24.730;2024-02-28T12:43:30;91733.34;;;14.35;100.00
59274;BME280;45044;41.572;24.730;2024-02-28T12:45:59;91745.78;;;14.35;100.00